sensor_id;sensor_type;location;lat;lon;timestamp;pressure;altitude;pressure_sealevel;temperature;humidity
45939;BME280;31650;48.818;9.116;2024-03-08T00:00:59;97964.84;;;1.00;100.00
45939;BME280;31650;48.818;9.116;2024-03-08T00:15:59;97951.34;;;0.76;100.00
45939;BME280;31650;48.818;9.116;2024-03-08T00:30:59;97949.88;;;0.55;100.00
45939;BME280;31650;48.818;9.116;2024-03-08T00:46:00;97940.97;;;0.47;100.00
45939;BME280;31650;48.818;9.116;2024-03-08T07:21:43;97702.94;;;0.55;100.00
45939;BME280;31650;48.818;9.116;2024-03-08T07:36:47;97682.63;;;1.36;100.00
45939;BME280;31650;48.818;9.116;2024-03-08T07:51:47;97649.00;;;1.89;100.00
45939;BME280;31650;48.818;9.116;2024-03-08T08:06:49;97608.66;;;2.45;100.00
45939;BME280;31650;48.818;9.116;2024-03-08T08:21:51;97594.19;;;2.77;100.00
45939;BME280;31650;48.818;9.116;2024-03-08T08:36:52;97577.19;;;2.99;100.00
45939;BME280;31650;48.818;9.116;2024-03-08T08:51:53;97558.34;;;3.23;100.00
45939;BME280;31650;48.818;9.116;2024-03-08T09:06:53;97557.88;;;3.34;100.00
45939;BME280;31650;48.818;9.116;2024-03-08T09:21:53;97552.81;;;3.54;100.00
45939;BME280;31650;48.818;9.116;2024-03-08T09:36:54;97533.72;;;3.63;100.00
45939;BME280;31650;48.818;9.116;2024-03-08T09:51:54;97510.06;;;4.10;100.00
45939;BME280;31650;48.818;9.116;2024-03-08T10:06:57;97500.84;;;4.41;100.00
45939;BME280;31650;48.818;9.116;2024-03-08T10:21:59;97493.59;;;4.63;97.37
45939;BME280;31650;48.818;9.116;2024-03-08T10:37:03;97470.91;;;5.42;92.25
45939;BME280;31650;48.818;9.116;2024-03-08T10:52:04;97458.25;;;5.90;86.50
45939;BME280;31650;48.818;9.116;2024-03-08T11:07:05;97455.00;;;6.02;83.49
45939;BME280;31650;48.818;9.116;2024-03-08T11:22:28;97432.41;;;6.36;80.11
45939;BME280;31650;48.818;9.116;2024-03-08T11:37:33;97427.22;;;6.41;81.20
45939;BME280;31650;48.818;9.116;2024-03-08T11:52:34;97391.63;;;7.04;78.85
45939;BME280;31650;48.818;9.116;2024-03-08T12:07:35;97349.47;;;8.37;73.72
45939;BME280;31650;48.818;9.116;2024-03-08T12:22:35;97327.94;;;9.29;69.75
45939;BME280;31650;48.818;9.116;2024-03-08T12:37:35;97307.00;;;10.08;68.37
45939;BME280;31650;48.818;9.116;2024-03-08T12:52:37;97283.59;;;10.07;67.01
45939;BME280;31650;48.818;9.116;2024-03-08T13:07:37;97258.63;;;9.75;67.12
45939;BME280;31650;48.818;9.116;2024-03-08T13:22:38;97248.69;;;8.35;70.66
45939;BME280;31650;48.818;9.116;2024-03-08T13:37:39;97219.06;;;7.96;72.75
45939;BME280;31650;48.818;9.116;2024-03-08T13:52:39;97190.22;;;8.27;72.23
45939;BME280;31650;48.818;9.116;2024-03-08T14:07:40;97184.47;;;7.98;72.42
45939;BME280;31650;48.818;9.116;2024-03-08T14:22:40;97154.50;;;8.00;72.18
45939;BME280;31650;48.818;9.116;2024-03-08T14:37:40;97143.31;;;8.33;71.20
45939;BME280;31650;48.818;9.116;2024-03-08T14:52:40;97121.75;;;8.75;69.87
45939;BME280;31650;48.818;9.116;2024-03-08T15:07:41;97106.69;;;8.79;69.86
45939;BME280;31650;48.818;9.116;2024-03-08T15:22:43;97071.19;;;8.69;70.59
45939;BME280;31650;48.818;9.116;2024-03-08T15:37:43;97049.53;;;9.46;68.66
45939;BME280;31650;48.818;9.116;2024-03-08T15:52:45;97020.41;;;10.17;66.47
45939;BME280;31650;48.818;9.116;2024-03-08T16:07:47;97006.31;;;9.92;67.42
45939;BME280;31650;48.818;9.116;2024-03-08T16:22:47;96995.84;;;8.89;70.72
45939;BME280;31650;48.818;9.116;2024-03-08T16:37:51;96996.97;;;8.09;73.75
45939;BME280;31650;48.818;9.116;2024-03-08T16:52:52;96991.44;;;7.49;76.84
45939;BME280;31650;48.818;9.116;2024-03-08T17:07:52;96975.38;;;6.67;82.47
45939;BME280;31650;48.818;9.116;2024-03-08T17:22:54;96981.97;;;6.46;84.71
45939;BME280;31650;48.818;9.116;2024-03-08T17:37:55;96975.41;;;5.97;89.08
45939;BME280;31650;48.818;9.116;2024-03-08T17:52:55;96972.00;;;6.08;86.88
45939;BME280;31650;48.818;9.116;2024-03-08T18:07:56;96957.25;;;6.11;84.50
45939;BME280;31650;48.818;9.116;2024-03-08T18:22:58;96936.47;;;6.18;82.51
45939;BME280;31650;48.818;9.116;2024-03-08T18:37:58;96949.47;;;5.96;80.44
45939;BME280;31650;48.818;9.116;2024-03-08T18:52:59;96941.38;;;5.44;82.32
45939;BME280;31650;48.818;9.116;2024-03-08T19:07:59;96944.59;;;5.08;84.72
45939;BME280;31650;48.818;9.116;2024-03-08T19:23:08;96945.66;;;4.74;86.49
45939;BME280;31650;48.818;9.116;2024-03-08T19:38:09;96948.78;;;4.44;88.12
45939;BME280;31650;48.818;9.116;2024-03-08T19:53:14;96953.72;;;4.14;89.78
45939;BME280;31650;48.818;9.116;2024-03-08T20:08:15;96958.84;;;3.95;88.78
45939;BME280;31650;48.818;9.116;2024-03-08T20:23:17;96950.16;;;3.38;92.29
45939;BME280;31650;48.818;9.116;2024-03-08T20:38:18;96949.78;;;3.07;95.91
45939;BME280;31650;48.818;9.116;2024-03-08T20:53:20;96940.25;;;2.41;100.00
45939;BME280;31650;48.818;9.116;2024-03-08T21:08:20;96947.53;;;2.26;100.00
45939;BME280;31650;48.818;9.116;2024-03-08T21:23:26;96958.34;;;2.11;100.00
45939;BME280;31650;48.818;9.116;2024-03-08T21:38:27;96963.84;;;2.24;100.00
45939;BME280;31650;48.818;9.116;2024-03-08T21:53:27;96951.41;;;2.17;100.00
45939;BME280;31650;48.818;9.116;2024-03-08T22:08:27;96947.06;;;1.58;100.00
45939;BME280;31650;48.818;9.116;2024-03-08T22:23:27;96943.16;;;1.24;100.00
45939;BME280;31650;48.818;9.116;2024-03-08T22:38:28;96930.34;;;0.90;100.00
45939;BME280;31650;48.818;9.116;2024-03-08T22:53:28;96936.25;;;1.00;100.00
45939;BME280;31650;48.818;9.116;2024-03-08T23:08:28;96963.75;;;1.23;100.00
45939;BME280;31650;48.818;9.116;2024-03-08T23:23:29;96957.38;;;1.10;100.00
45939;BME280;31650;48.818;9.116;2024-03-08T23:38:30;96969.19;;;0.71;100.00
45939;BME280;31650;48.818;9.116;2024-03-08T23:53:31;96984.97;;;0.42;100.00
